Nancy Foster — WTER — position and weather

sailwx.info

Track history (hours):
 
Tides and Currents Weather Stations Pressure Air Temp Water Temp Dewpoint Dewpoint Depression Visibility Wind Speed Wind Dir Waves Ship Positions

Oceanographic research ship Nancy Foster (USA)

Detailed information on ship capabilities available from University of Delaware's Ocean Information Center.

Last reported at 2017-May-24 18:59 UTC. Time now 2017-May-24 19:42 UTC.
Position N 25°36' W 093°30'.

Type: Other ship. MMSI: 369912000.

Wind from 330 at 16 knots

Barometer 1011.0 mb
Air temperature 24.5 ° C
Water temperature 26.5 ° C

Date/timePositionNaut miles runAvg speedWind from/ knotsBaromVisibWave heightAir tempDewpointWater temp
2017-May-24 18:59N 25°36' W 093°30'6 0.7 330 / 161011.0 24.5 26.5
2017-May-24 10:49N 25°30' W 093°30'0 0.0 100 / 31007.5 23.8 26.3
2017-May-24 09:50N 25°30' W 093°30'8 8.2 060 / 10 23.4 26.3
2017-May-24 08:51N 25°24' W 093°24'0 0.0 030 / 111009.3 22.9 26.4
2017-May-24 07:53N 25°24' W 093°24'6 6.1 340 / 361009.0 21.5 26.3
2017-May-24 06:54N 25°30' W 093°24'6 6.1 010 / 61008.9 25.6 26.4
2017-May-24 05:55N 25°24' W 093°24'8 8.2 360 / 71010.1 26.0 26.4
2017-May-24 04:56N 25°18' W 093°18'1313.4 060 / 31010.0 25.9 26.5
2017-May-24 03:57N 25°06' W 093°12'8 8.2 070 / 31008.7 26.1 26.6
2017-May-24 02:58N 25°00' W 093°06'8 8.1 020 / 41009.1 26.4 26.9
2017-May-24 01:58N 24°54' W 093°00'8 8.2 080 / 31008.7 26.9 27.2
2017-May-24 00:59N 24°48' W 092°54'50 9.8 150 / 11008.8 26.9 27.5
2017-May-23 19:52N 24°06' W 092°24'8 8.3 210 / 101009.1 28.2 27.5
2017-May-23 18:53N 24°00' W 092°18'1313.4 210 / 91010.3 27.9 27.5
2017-May-23 17:54N 23°48' W 092°12'8 8.3 200 / 111010.9 28.0 27.3
2017-May-23 16:55N 23°42' W 092°06'8 8.3 180 / 111010.7 27.8 27.1
2017-May-23 15:56N 23°36' W 092°00'1313.4 160 / 131010.9 28.0 27.1
2017-May-23 14:57N 23°24' W 091°54'8 8.3 170 / 141010.0 28.1 27.0
2017-May-23 13:58N 23°18' W 091°48'8 8.1 170 / 171010.4 28.2 27.0
2017-May-23 12:58N 23°12' W 091°42'41 9.8 160 / 171010.5 28.0 26.9
2017-May-23 08:49N 22°42' W 091°12'8 8.2 150 / 191010.1 28.4 27.2
2017-May-23 07:49N 22°36' W 091°06'8 8.3 150 / 171010.4 29.0 27.2
2017-May-23 06:50N 22°30' W 091°00'1312.8 140 / 131010.7 28.6 27.2
2017-May-23 05:51N 22°24' W 090°48'8 8.3 110 / 121011.3 27.7 27.1
2017-May-23 04:52N 22°18' W 090°42'8 8.3 090 / 121011.7 27.3 27.0
2017-May-23 03:53N 22°12' W 090°36'1312.8 090 / 111011.8 27.3 26.9
2017-May-23 02:54N 22°06' W 090°24'1212.0 090 / 141011.0 27.3 27.0
2017-May-23 01:54N 21°54' W 090°24'1312.9 080 / 171010.5 27.2 27.0
2017-May-23 00:55N 21°48' W 090°12'13 6.4 090 / 161010.7 27.2 27.0
2017-May-22 22:57N 21°42' W 090°00'8 8.2 080 / 151010.9 27.0 26.2
2017-May-22 21:57N 21°36' W 089°54'1312.9 060 / 191010.5 26.8 26.3
2017-May-22 20:58N 21°30' W 089°42'   070 / 231011.0 27.1 27.3
2017-May-19 16:57N 21°18' W 089°36'6 5.6 080 / 91005.9 30.8 29.2
2017-May-19 15:57N 21°18' W 089°42'1313.2 090 / 111007.9 29.4 28.7
2017-May-19 14:57N 21°30' W 089°36'6 6.0 110 / 171009.2 26.6 26.8
2017-May-19 13:57N 21°36' W 089°36'1212.0 110 / 161009.3 26.1 25.5
2017-May-19 12:57N 21°48' W 089°36'1212.0 100 / 171008.3 26.1 26.2
2017-May-19 11:57N 22°00' W 089°36'8 8.2 110 / 151008.4 26.1 26.3
2017-May-19 10:57N 22°06' W 089°30'1212.0 120 / 181008.6 26.2 26.8
2017-May-19 09:57N 22°18' W 089°30'6 6.0 120 / 201008.3 26.3 26.7
2017-May-19 08:57N 22°24' W 089°30'1212.2 110 / 231008.3 26.6 26.8
2017-May-19 07:58N 22°36' W 089°30'1212.0 110 / 251008.6 26.8 26.9
2017-May-19 06:58N 22°48' W 089°30'6 6.0 110 / 201008.8 26.8 26.9
2017-May-19 05:58N 22°54' W 089°30'1313.2 110 / 261009.2 27.1 26.9
2017-May-19 04:58N 23°06' W 089°24'6 6.0 100 / 261008.9 27.0 26.9
2017-May-19 03:58N 23°12' W 089°24'1212.0 090 / 281008.5 27.0 27.0
2017-May-19 02:58N 23°24' W 089°24'6 6.0 100 / 271008.9 27.0 26.7
2017-May-19 01:58N 23°30' W 089°24'1212.0 090 / 251009.1 26.9 26.9
2017-May-19 00:58N 23°42' W 089°24'18 9.0 090 / 221009.1 26.7 26.8
2017-May-18 22:58N 24°00' W 089°24'1212.0 090 / 191010.0 26.8 26.9
2017-May-18 21:58N 24°12' W 089°24'6 6.0 100 / 171010.3 26.9 26.9
2017-May-18 20:58N 24°18' W 089°24'1212.0 100 / 171011.0 26.9 26.9
2017-May-18 19:58N 24°30' W 089°24'6 6.1 110 / 131010.9 26.9 26.8
2017-May-18 18:59N 24°36' W 089°24'1313.2 100 / 141011.9 26.8 26.8
2017-May-18 17:59N 24°48' W 089°18'1212.0 100 / 171012.4 26.7 26.7
2017-May-18 16:59N 25°00' W 089°18'6 6.0 100 / 191012.7 26.6 26.3
2017-May-18 15:59N 25°06' W 089°18'1212.0 110 / 151013.3 26.4 26.2
2017-May-18 14:59N 25°18' W 089°18'6 6.0 110 / 121013.2 26.3 26.2
2017-May-18 13:59N 25°24' W 089°18'1212.0 110 / 171012.7 26.0 26.0
2017-May-18 12:59N 25°36' W 089°18'18 1.3 110 / 181012.6 25.9 25.9
2017-May-17 22:48N 25°54' W 089°18'0 0.0 100 / 81012.5 26.3 26.2
2017-May-17 21:48N 25°54' W 089°18'0 0.0 110 / 61012.9 26.4 26.1
2017-May-17 20:48N 25°54' W 089°18'0 0.0 100 / 81013.0 26.3 26.2
2017-May-17 19:48N 25°54' W 089°18'0 0.0 110 / 101013.2 26.4 26.2
2017-May-17 18:48N 25°54' W 089°18'0 0.0 110 / 101013.5 26.3 26.0
2017-May-17 17:48N 25°54' W 089°18'0 0.0 130 / 111013.7 26.2 25.9
2017-May-17 16:49N 25°54' W 089°18'0 0.0 130 / 151013.7 26.3 25.7
2017-May-17 15:49N 25°54' W 089°18'0 0.0 130 / 141013.4 25.9 25.7
2017-May-17 14:49N 25°54' W 089°18'0 0.0 120 / 141013.6 25.8 25.6
2017-May-17 13:49N 25°54' W 089°18'0 0.0 130 / 141013.6 25.7 25.5
2017-May-17 12:49N 25°54' W 089°18'0 0.0 120 / 181012.1 25.5 25.5
2017-May-17 11:49N 25°54' W 089°18'0 0.0 130 / 161012.1 25.3 25.5
2017-May-17 10:49N 25°54' W 089°18'0 0.0 210 / 191011.3 25.3 25.5
2017-May-17 09:49N 25°54' W 089°18'0 0.0 120 / 71010.8 25.3 25.5
2017-May-17 08:49N 25°54' W 089°18'0 0.0 130 / 151011.8 25.2 25.5
2017-May-17 07:49N 25°54' W 089°18'0 0.0 130 / 141012.4 25.0 25.5
2017-May-17 06:49N 25°54' W 089°18'0 0.0 110 / 141012.6 25.2 25.6
2017-May-17 05:49N 25°54' W 089°18'0 0.0 110 / 141013.7 25.1 25.6
2017-May-17 04:50N 25°54' W 089°18'0 0.0 090 / 181013.7 25.2 25.6
2017-May-17 03:50N 25°54' W 089°18'0 0.0 090 / 141014.3 25.3 25.6
2017-May-17 02:50N 25°54' W 089°18'0 0.0 090 / 161014.0 25.5 25.7
2017-May-17 01:50N 25°54' W 089°18'5 5.5 090 / 161014.5 25.4 25.7
2017-May-17 00:51N 25°54' W 089°12'0 0.0 110 / 101014.2 25.5 25.8
2017-May-16 22:51N 25°54' W 089°12'0 0.0 090 / 141014.4 25.8 25.9
2017-May-16 21:51N 25°54' W 089°12'0 0.0 110 / 131014.2 26.0 25.9
2017-May-16 20:51N 25°54' W 089°12'0 0.0 090 / 141014.5 25.9 25.8
2017-May-16 19:51N 25°54' W 089°12'0 0.0 110 / 121014.3 25.9 25.8
2017-May-16 18:51N 25°54' W 089°12'0 0.0 100 / 151015.2 25.7 25.6
2017-May-16 17:51N 25°54' W 089°12'0 0.0 100 / 151015.4 25.7 25.6
2017-May-16 16:51N 25°54' W 089°12'0 0.0 110 / 61015.2 25.6 25.6
2017-May-16 15:51N 25°54' W 089°12'0 0.0 090 / 121015.6 26.1 25.5
2017-May-16 14:51N 25°54' W 089°12'0 0.0 090 / 151015.9 25.3 25.4
2017-May-16 13:51N 25°54' W 089°12'0 0.0 090 / 151015.6 24.9 25.4
2017-May-16 12:52N 25°54' W 089°12'0 0.0 110 / 111014.2 24.9 25.4
2017-May-16 11:52N 25°54' W 089°12'6 6.0 100 / 121014.3 24.7 25.4
2017-May-16 10:52N 26°00' W 089°12'0 0.0 090 / 111013.5 24.8 25.4
2017-May-16 09:52N 26°00' W 089°12'6 6.0 100 / 91013.3 24.7 25.4
2017-May-16 08:52N 25°54' W 089°12'0 0.0 100 / 91013.2 24.3 25.4
2017-May-16 07:52N 25°54' W 089°12'0 0.0 090 / 121013.9 24.3 25.4
2017-May-16 06:52N 25°54' W 089°12'6 6.0 090 / 111014.6 24.4 25.5
2017-May-16 05:52N 26°00' W 089°12'6 6.0 110 / 91015.3 24.8 25.4
2017-May-16 04:52N 25°54' W 089°12'6 6.0 100 / 101015.5 24.4 25.5
2017-May-16 03:52N 26°00' W 089°12'6 6.0 090 / 121015.6 24.6 25.5
2017-May-16 02:52N 26°06' W 089°12'5 5.4 090 / 151014.8 24.5 25.5
2017-May-16 01:52N 26°06' W 089°18'1110.8 060 / 121014.7 24.6 25.7
2017-May-16 00:52N 26°06' W 089°30'16 8.2 080 / 111014.2 24.7 25.8
2017-May-15 22:53N 26°06' W 089°48'1212.3 060 / 141013.7 24.9 25.9
2017-May-15 21:53N 26°00' W 090°00'1110.8 060 / 131013.9 25.0 25.9
2017-May-15 20:53N 26°00' W 090°12'5 5.4 070 / 111014.3 25.2 26.0
2017-May-15 19:53N 26°00' W 090°18'1110.8 070 / 111014.8 25.1 25.9
2017-May-15 18:53N 26°00' W 090°30'8 8.1 060 / 121015.1 25.2 26.0
2017-May-15 17:53N 25°54' W 090°36'0 0.0 080 / 71015.4 25.4 26.2
2017-May-15 16:53N 25°54' W 090°36'0 0.0 100 / 61015.9 26.3 26.0
2017-May-15 15:53N 25°54' W 090°36'0 0.0 050 / 81015.9 25.4 25.9
2017-May-15 14:53N 25°54' W 090°36'5 5.4 060 / 51015.8 25.3 25.7
2017-May-15 13:53N 25°54' W 090°30'8 8.1 090 / 81015.5 25.0 25.5
2017-May-15 12:53N 25°48' W 090°24'0 0.0 090 / 61015.0 24.7 25.5
2017-May-15 11:53N 25°48' W 090°24'5 5.6 080 / 81014.4 24.6 25.6
2017-May-15 10:55N 25°48' W 090°18'8 8.1 080 / 71013.6 24.4 25.6
2017-May-15 09:55N 25°42' W 090°12'5 5.4 090 / 61013.4 24.4 25.6
2017-May-15 08:55N 25°42' W 090°06'6 6.0 090 / 71013.2 24.4 25.5
2017-May-15 07:55N 25°36' W 090°06'0 0.0 060 / 81013.5 24.5 25.6
2017-May-15 06:55N 25°36' W 090°06'5 5.4 080 / 91014.1 24.6 25.7
2017-May-15 05:55N 25°36' W 090°00'0 0.0 080 / 91014.4 24.6 25.7
2017-May-15 04:56N 25°36' W 090°00'0 0.0 080 / 71014.7 24.7 25.9
2017-May-15 03:56N 25°36' W 090°00'6 6.0 070 / 91014.5 24.7 25.7
2017-May-15 02:56N 25°30' W 090°00'5 5.4 070 / 101014.3 24.7 25.9
2017-May-15 01:56N 25°30' W 089°54'0 0.0 060 / 81013.7 24.7 26.1
2017-May-15 00:56N 25°30' W 089°54'11 5.4 020 / 81013.5 24.8 26.0
2017-May-14 22:56N 25°30' W 089°42'5 5.4 030 / 71013.7 25.5 26.2
2017-May-14 21:56N 25°30' W 089°36'0 0.0 050 / 31014.2 25.5 26.7
2017-May-14 20:56N 25°30' W 089°36'5 5.4 020 / 41014.6 25.0 26.5
2017-May-14 19:56N 25°30' W 089°30'   030 / 81014.5 24.7 26.4
Track history (hours):
 
Tides and Currents Weather Stations Pressure Air Temp Water Temp Dewpoint Dewpoint Depression Visibility Wind Speed Wind Dir Waves Ship Positions

Oceanographic research ship Nancy Foster (USA)

Detailed information on ship capabilities available from University of Delaware's Ocean Information Center.

Last reported at 2017-May-24 18:59 UTC. Time now 2017-May-24 19:42 UTC.
Position N 25°36' W 093°30'.

Type: Other ship. MMSI: 369912000.

Wind from 330 at 16 knots

Barometer 1011.0 mb
Air temperature 24.5 ° C
Water temperature 26.5 ° C

Date/timePositionNaut miles runAvg speedWind from/ knotsBaromVisibWave heightAir tempDewpointWater temp
2017-May-24 18:59N 25°36' W 093°30'6 0.7 330 / 161011.0 24.5 26.5
2017-May-24 10:49N 25°30' W 093°30'0 0.0 100 / 31007.5 23.8 26.3
2017-May-24 09:50N 25°30' W 093°30'8 8.2 060 / 10 23.4 26.3
2017-May-24 08:51N 25°24' W 093°24'0 0.0 030 / 111009.3 22.9 26.4
2017-May-24 07:53N 25°24' W 093°24'6 6.1 340 / 361009.0 21.5 26.3
2017-May-24 06:54N 25°30' W 093°24'6 6.1 010 / 61008.9 25.6 26.4
2017-May-24 05:55N 25°24' W 093°24'8 8.2 360 / 71010.1 26.0 26.4
2017-May-24 04:56N 25°18' W 093°18'1313.4 060 / 31010.0 25.9 26.5
2017-May-24 03:57N 25°06' W 093°12'8 8.2 070 / 31008.7 26.1 26.6
2017-May-24 02:58N 25°00' W 093°06'8 8.1 020 / 41009.1 26.4 26.9
2017-May-24 01:58N 24°54' W 093°00'8 8.2 080 / 31008.7 26.9 27.2
2017-May-24 00:59N 24°48' W 092°54'50 9.8 150 / 11008.8 26.9 27.5
2017-May-23 19:52N 24°06' W 092°24'8 8.3 210 / 101009.1 28.2 27.5
2017-May-23 18:53N 24°00' W 092°18'1313.4 210 / 91010.3 27.9 27.5
2017-May-23 17:54N 23°48' W 092°12'8 8.3 200 / 111010.9 28.0 27.3
2017-May-23 16:55N 23°42' W 092°06'8 8.3 180 / 111010.7 27.8 27.1
2017-May-23 15:56N 23°36' W 092°00'1313.4 160 / 131010.9 28.0 27.1
2017-May-23 14:57N 23°24' W 091°54'8 8.3 170 / 141010.0 28.1 27.0
2017-May-23 13:58N 23°18' W 091°48'8 8.1 170 / 171010.4 28.2 27.0
2017-May-23 12:58N 23°12' W 091°42'41 9.8 160 / 171010.5 28.0 26.9
2017-May-23 08:49N 22°42' W 091°12'8 8.2 150 / 191010.1 28.4 27.2
2017-May-23 07:49N 22°36' W 091°06'8 8.3 150 / 171010.4 29.0 27.2
2017-May-23 06:50N 22°30' W 091°00'1312.8 140 / 131010.7 28.6 27.2
2017-May-23 05:51N 22°24' W 090°48'8 8.3 110 / 121011.3 27.7 27.1
2017-May-23 04:52N 22°18' W 090°42'8 8.3 090 / 121011.7 27.3 27.0
2017-May-23 03:53N 22°12' W 090°36'1312.8 090 / 111011.8 27.3 26.9
2017-May-23 02:54N 22°06' W 090°24'1212.0 090 / 141011.0 27.3 27.0
2017-May-23 01:54N 21°54' W 090°24'1312.9 080 / 171010.5 27.2 27.0
2017-May-23 00:55N 21°48' W 090°12'13 6.4 090 / 161010.7 27.2 27.0
2017-May-22 22:57N 21°42' W 090°00'8 8.2 080 / 151010.9 27.0 26.2
2017-May-22 21:57N 21°36' W 089°54'1312.9 060 / 191010.5 26.8 26.3
2017-May-22 20:58N 21°30' W 089°42'   070 / 231011.0 27.1 27.3
2017-May-19 16:57N 21°18' W 089°36'6 5.6 080 / 91005.9 30.8 29.2
2017-May-19 15:57N 21°18' W 089°42'1313.2 090 / 111007.9 29.4 28.7
2017-May-19 14:57N 21°30' W 089°36'6 6.0 110 / 171009.2 26.6 26.8
2017-May-19 13:57N 21°36' W 089°36'1212.0 110 / 161009.3 26.1 25.5
2017-May-19 12:57N 21°48' W 089°36'1212.0 100 / 171008.3 26.1 26.2
2017-May-19 11:57N 22°00' W 089°36'8 8.2 110 / 151008.4 26.1 26.3
2017-May-19 10:57N 22°06' W 089°30'1212.0 120 / 181008.6 26.2 26.8
2017-May-19 09:57N 22°18' W 089°30'6 6.0 120 / 201008.3 26.3 26.7
2017-May-19 08:57N 22°24' W 089°30'1212.2 110 / 231008.3 26.6 26.8
2017-May-19 07:58N 22°36' W 089°30'1212.0 110 / 251008.6 26.8 26.9
2017-May-19 06:58N 22°48' W 089°30'6 6.0 110 / 201008.8 26.8 26.9
2017-May-19 05:58N 22°54' W 089°30'1313.2 110 / 261009.2 27.1 26.9
2017-May-19 04:58N 23°06' W 089°24'6 6.0 100 / 261008.9 27.0 26.9
2017-May-19 03:58N 23°12' W 089°24'1212.0 090 / 281008.5 27.0 27.0
2017-May-19 02:58N 23°24' W 089°24'6 6.0 100 / 271008.9 27.0 26.7
2017-May-19 01:58N 23°30' W 089°24'1212.0 090 / 251009.1 26.9 26.9
2017-May-19 00:58N 23°42' W 089°24'18 9.0 090 / 221009.1 26.7 26.8
2017-May-18 22:58N 24°00' W 089°24'1212.0 090 / 191010.0 26.8 26.9
2017-May-18 21:58N 24°12' W 089°24'6 6.0 100 / 171010.3 26.9 26.9
2017-May-18 20:58N 24°18' W 089°24'1212.0 100 / 171011.0 26.9 26.9
2017-May-18 19:58N 24°30' W 089°24'6 6.1 110 / 131010.9 26.9 26.8
2017-May-18 18:59N 24°36' W 089°24'1313.2 100 / 141011.9 26.8 26.8
2017-May-18 17:59N 24°48' W 089°18'1212.0 100 / 171012.4 26.7 26.7
2017-May-18 16:59N 25°00' W 089°18'6 6.0 100 / 191012.7 26.6 26.3
2017-May-18 15:59N 25°06' W 089°18'1212.0 110 / 151013.3 26.4 26.2
2017-May-18 14:59N 25°18' W 089°18'6 6.0 110 / 121013.2 26.3 26.2
2017-May-18 13:59N 25°24' W 089°18'1212.0 110 / 171012.7 26.0 26.0
2017-May-18 12:59N 25°36' W 089°18'18 1.3 110 / 181012.6 25.9 25.9
2017-May-17 22:48N 25°54' W 089°18'0 0.0 100 / 81012.5 26.3 26.2
2017-May-17 21:48N 25°54' W 089°18'0 0.0 110 / 61012.9 26.4 26.1
2017-May-17 20:48N 25°54' W 089°18'0 0.0 100 / 81013.0 26.3 26.2
2017-May-17 19:48N 25°54' W 089°18'0 0.0 110 / 101013.2 26.4 26.2
2017-May-17 18:48N 25°54' W 089°18'0 0.0 110 / 101013.5 26.3 26.0
2017-May-17 17:48N 25°54' W 089°18'0 0.0 130 / 111013.7 26.2 25.9
2017-May-17 16:49N 25°54' W 089°18'0 0.0 130 / 151013.7 26.3 25.7
2017-May-17 15:49N 25°54' W 089°18'0 0.0 130 / 141013.4 25.9 25.7
2017-May-17 14:49N 25°54' W 089°18'0 0.0 120 / 141013.6 25.8 25.6
2017-May-17 13:49N 25°54' W 089°18'0 0.0 130 / 141013.6 25.7 25.5
2017-May-17 12:49N 25°54' W 089°18'0 0.0 120 / 181012.1 25.5 25.5
2017-May-17 11:49N 25°54' W 089°18'0 0.0 130 / 161012.1 25.3 25.5
2017-May-17 10:49N 25°54' W 089°18'0 0.0 210 / 191011.3 25.3 25.5
2017-May-17 09:49N 25°54' W 089°18'0 0.0 120 / 71010.8 25.3 25.5
2017-May-17 08:49N 25°54' W 089°18'0 0.0 130 / 151011.8 25.2 25.5
2017-May-17 07:49N 25°54' W 089°18'0 0.0 130 / 141012.4 25.0 25.5
2017-May-17 06:49N 25°54' W 089°18'0 0.0 110 / 141012.6 25.2 25.6
2017-May-17 05:49N 25°54' W 089°18'0 0.0 110 / 141013.7 25.1 25.6
2017-May-17 04:50N 25°54' W 089°18'0 0.0 090 / 181013.7 25.2 25.6
2017-May-17 03:50N 25°54' W 089°18'0 0.0 090 / 141014.3 25.3 25.6
2017-May-17 02:50N 25°54' W 089°18'0 0.0 090 / 161014.0 25.5 25.7
2017-May-17 01:50N 25°54' W 089°18'5 5.5 090 / 161014.5 25.4 25.7
2017-May-17 00:51N 25°54' W 089°12'0 0.0 110 / 101014.2 25.5 25.8
2017-May-16 22:51N 25°54' W 089°12'0 0.0 090 / 141014.4 25.8 25.9
2017-May-16 21:51N 25°54' W 089°12'0 0.0 110 / 131014.2 26.0 25.9
2017-May-16 20:51N 25°54' W 089°12'0 0.0 090 / 141014.5 25.9 25.8
2017-May-16 19:51N 25°54' W 089°12'0 0.0 110 / 121014.3 25.9 25.8
2017-May-16 18:51N 25°54' W 089°12'0 0.0 100 / 151015.2 25.7 25.6
2017-May-16 17:51N 25°54' W 089°12'0 0.0 100 / 151015.4 25.7 25.6
2017-May-16 16:51N 25°54' W 089°12'0 0.0 110 / 61015.2 25.6 25.6
2017-May-16 15:51N 25°54' W 089°12'0 0.0 090 / 121015.6 26.1 25.5
2017-May-16 14:51N 25°54' W 089°12'0 0.0 090 / 151015.9 25.3 25.4
2017-May-16 13:51N 25°54' W 089°12'0 0.0 090 / 151015.6 24.9 25.4
2017-May-16 12:52N 25°54' W 089°12'0 0.0 110 / 111014.2 24.9 25.4
2017-May-16 11:52N 25°54' W 089°12'6 6.0 100 / 121014.3 24.7 25.4
2017-May-16 10:52N 26°00' W 089°12'0 0.0 090 / 111013.5 24.8 25.4
2017-May-16 09:52N 26°00' W 089°12'6 6.0 100 / 91013.3 24.7 25.4
2017-May-16 08:52N 25°54' W 089°12'0 0.0 100 / 91013.2 24.3 25.4
2017-May-16 07:52N 25°54' W 089°12'0 0.0 090 / 121013.9 24.3 25.4
2017-May-16 06:52N 25°54' W 089°12'6 6.0 090 / 111014.6 24.4 25.5
2017-May-16 05:52N 26°00' W 089°12'6 6.0 110 / 91015.3 24.8 25.4
2017-May-16 04:52N 25°54' W 089°12'6 6.0 100 / 101015.5 24.4 25.5
2017-May-16 03:52N 26°00' W 089°12'6 6.0 090 / 121015.6 24.6 25.5
2017-May-16 02:52N 26°06' W 089°12'5 5.4 090 / 151014.8 24.5 25.5
2017-May-16 01:52N 26°06' W 089°18'1110.8 060 / 121014.7 24.6 25.7
2017-May-16 00:52N 26°06' W 089°30'16 8.2 080 / 111014.2 24.7 25.8
2017-May-15 22:53N 26°06' W 089°48'1212.3 060 / 141013.7 24.9 25.9
2017-May-15 21:53N 26°00' W 090°00'1110.8 060 / 131013.9 25.0 25.9
2017-May-15 20:53N 26°00' W 090°12'5 5.4 070 / 111014.3 25.2 26.0
2017-May-15 19:53N 26°00' W 090°18'1110.8 070 / 111014.8 25.1 25.9
2017-May-15 18:53N 26°00' W 090°30'8 8.1 060 / 121015.1 25.2 26.0
2017-May-15 17:53N 25°54' W 090°36'0 0.0 080 / 71015.4 25.4 26.2
2017-May-15 16:53N 25°54' W 090°36'0 0.0 100 / 61015.9 26.3 26.0
2017-May-15 15:53N 25°54' W 090°36'0 0.0 050 / 81015.9 25.4 25.9
2017-May-15 14:53N 25°54' W 090°36'5 5.4 060 / 51015.8 25.3 25.7
2017-May-15 13:53N 25°54' W 090°30'8 8.1 090 / 81015.5 25.0 25.5
2017-May-15 12:53N 25°48' W 090°24'0 0.0 090 / 61015.0 24.7 25.5
2017-May-15 11:53N 25°48' W 090°24'5 5.6 080 / 81014.4 24.6 25.6
2017-May-15 10:55N 25°48' W 090°18'8 8.1 080 / 71013.6 24.4 25.6
2017-May-15 09:55N 25°42' W 090°12'5 5.4 090 / 61013.4 24.4 25.6
2017-May-15 08:55N 25°42' W 090°06'6 6.0 090 / 71013.2 24.4 25.5
2017-May-15 07:55N 25°36' W 090°06'0 0.0 060 / 81013.5 24.5 25.6
2017-May-15 06:55N 25°36' W 090°06'5 5.4 080 / 91014.1 24.6 25.7
2017-May-15 05:55N 25°36' W 090°00'0 0.0 080 / 91014.4 24.6 25.7
2017-May-15 04:56N 25°36' W 090°00'0 0.0 080 / 71014.7 24.7 25.9
2017-May-15 03:56N 25°36' W 090°00'6 6.0 070 / 91014.5 24.7 25.7
2017-May-15 02:56N 25°30' W 090°00'5 5.4 070 / 101014.3 24.7 25.9
2017-May-15 01:56N 25°30' W 089°54'0 0.0 060 / 81013.7 24.7 26.1
2017-May-15 00:56N 25°30' W 089°54'11 5.4 020 / 81013.5 24.8 26.0
2017-May-14 22:56N 25°30' W 089°42'5 5.4 030 / 71013.7 25.5 26.2
2017-May-14 21:56N 25°30' W 089°36'0 0.0 050 / 31014.2 25.5 26.7
2017-May-14 20:56N 25°30' W 089°36'5 5.4 020 / 41014.6 25.0 26.5
2017-May-14 19:56N 25°30' W 089°30'   030 / 81014.5 24.7 26.4

Dump ship's entire track history